Time;durP1;ratioP1;P1;durP2;ratioP2;P2;SDS_P1;SDS_P2;PMS_P1;PMS_P2;Temp;Humidity;BMP_temperature;BMP_pressure;BME280_temperature;BME280_humidity;BME280_pressure;Samples;Min_cycle;Max_cycle;Signal;HPM_P1;HPM_P2
2022/01/11 00:00:03;;;;;;;100.65;34.72;;;;;;;-1.95;78.79;103411.19;4985951;28;20459;-47
2022/01/11 00:02:29;;;;;;;100.93;35.10;;;;;;;-1.90;78.01;103417.00;4985956;28;20062;-47
2022/01/11 00:04:55;;;;;;;99.05;34.35;;;;;;;-1.83;78.43;103418.25;4986342;28;20121;-46
2022/01/11 00:07:22;;;;;;;90.60;33.35;;;;;;;-1.85;78.60;103426.25;4988070;28;20030;-46
2022/01/11 00:09:50;;;;;;;90.10;32.90;;;;;;;-1.88;78.22;103428.25;4988528;28;20198;-47
2022/01/11 00:12:16;;;;;;;88.38;31.98;;;;;;;-1.91;78.20;103426.66;4987656;28;20034;-46
2022/01/11 00:14:42;;;;;;;92.05;33.35;;;;;;;-1.94;78.32;103426.03;4981595;28;20053;-46
2022/01/11 00:17:07;;;;;;;90.53;33.35;;;;;;;-1.96;79.04;103422.66;4966759;28;20022;-46
2022/01/11 00:19:34;;;;;;;90.15;32.72;;;;;;;-1.93;78.53;103419.81;4985210;28;20118;-49
2022/01/11 00:22:03;;;;;;;83.03;31.02;;;;;;;-1.90;78.78;103420.47;4989582;28;20442;-47
2022/01/11 00:24:30;;;;;;;93.60;32.78;;;;;;;-1.86;78.48;103427.19;4985696;28;20042;-49
2022/01/11 00:27:04;;;;;;;93.00;33.67;;;;;;;-1.81;78.58;103426.88;4982373;28;20117;-46
2022/01/11 00:29:31;;;;;;;96.05;34.15;;;;;;;-1.76;78.60;103424.81;4982552;28;20514;-46
2022/01/11 00:32:03;;;;;;;92.88;31.80;;;;;;;-1.71;78.29;103419.25;4989399;28;20042;-46
2022/01/11 00:34:39;;;;;;;90.13;32.00;;;;;;;-1.68;78.32;103419.03;4985442;28;20173;-48
2022/01/11 00:37:06;;;;;;;87.63;30.45;;;;;;;-1.69;78.53;103415.56;4980840;28;20060;-46
2022/01/11 00:39:32;;;;;;;85.10;31.70;;;;;;;-1.65;78.20;103424.91;4983693;28;20030;-46
2022/01/11 00:41:57;;;;;;;85.28;30.25;;;;;;;-1.62;77.66;103424.69;4987617;28;20030;-47
2022/01/11 00:44:23;;;;;;;80.95;29.70;;;;;;;-1.63;77.55;103427.44;4987223;28;20022;-46
2022/01/11 00:46:49;;;;;;;82.25;29.30;;;;;;;-1.71;77.98;103425.34;4983117;28;20026;-47
2022/01/11 00:49:14;;;;;;;71.43;28.38;;;;;;;-1.72;78.12;103430.69;4983479;28;20026;-48
2022/01/11 00:51:40;;;;;;;78.53;29.27;;;;;;;-1.65;78.51;103435.44;4982702;28;20048;-46
2022/01/11 00:54:06;;;;;;;77.35;29.33;;;;;;;-1.59;78.29;103444.72;4984257;28;20090;-47
2022/01/11 00:56:32;;;;;;;87.75;29.35;;;;;;;-1.57;78.41;103442.81;4983332;28;20026;-46
2022/01/11 00:58:57;;;;;;;78.15;28.67;;;;;;;-1.55;78.24;103449.66;4983594;28;20045;-46
2022/01/11 01:01:23;;;;;;;84.05;29.33;;;;;;;-1.57;78.04;103448.09;4982878;28;20030;-47
2022/01/11 01:03:49;;;;;;;76.93;26.42;;;;;;;-1.60;78.39;103449.13;4983457;28;20456;-47
2022/01/11 01:06:15;;;;;;;65.60;24.98;;;;;;;-1.61;78.35;103462.38;4982862;28;20093;-47
2022/01/11 01:08:40;;;;;;;67.05;24.23;;;;;;;-1.78;77.75;103455.59;4984863;28;20113;-47
2022/01/11 01:11:06;;;;;;;65.70;26.05;;;;;;;-1.86;78.78;103471.03;4982916;28;20030;-47
2022/01/11 01:13:31;;;;;;;61.28;24.38;;;;;;;-1.77;78.47;103472.22;4984141;28;20963;-47
2022/01/11 01:15:57;;;;;;;66.35;26.02;;;;;;;-1.72;78.52;103459.63;4982562;28;20041;-47
2022/01/11 01:18:26;;;;;;;66.40;26.50;;;;;;;-1.69;78.95;103462.88;5006151;22;20049;-47
2022/01/11 01:20:54;;;;;;;63.88;24.05;;;;;;;-1.58;78.10;103457.75;5020849;28;20033;-45
2022/01/11 01:23:21;;;;;;;66.97;24.65;;;;;;;-1.52;78.54;103462.59;5021521;28;20491;-46
2022/01/11 01:25:48;;;;;;;65.18;25.05;;;;;;;-1.49;77.94;103468.59;5019045;28;20094;-46
2022/01/11 01:28:14;;;;;;;67.43;24.55;;;;;;;-1.53;78.51;103476.69;5015046;28;20045;-46
2022/01/11 01:30:40;;;;;;;63.45;22.85;;;;;;;-1.57;78.18;103474.38;5004093;28;20041;-46
2022/01/11 01:33:07;;;;;;;58.83;22.30;;;;;;;-1.67;78.44;103473.28;5004964;28;20446;-46
2022/01/11 01:35:39;;;;;;;56.75;23.05;;;;;;;-1.69;78.30;103476.00;5004144;28;20116;-46
2022/01/11 01:38:05;;;;;;;50.03;22.08;;;;;;;-1.65;78.68;103466.13;5002086;28;20033;-46
2022/01/11 01:40:41;;;;;;;53.95;21.27;;;;;;;-1.69;78.24;103469.91;5002649;28;20123;-45
2022/01/11 01:43:09;;;;;;;58.72;23.52;;;;;;;-1.72;78.70;103473.59;5002471;28;20061;-46
2022/01/11 01:45:36;;;;;;;55.83;22.33;;;;;;;-1.68;78.60;103477.69;5004634;28;20083;-45
2022/01/11 01:48:02;;;;;;;55.47;22.05;;;;;;;-1.67;78.48;103484.63;5004532;28;20103;-45
2022/01/11 01:50:29;;;;;;;54.42;19.83;;;;;;;-1.67;78.47;103478.53;5019003;28;20026;-46
2022/01/11 01:52:57;;;;;;;53.20;20.20;;;;;;;-1.69;78.13;103475.19;5018477;28;20029;-46
2022/01/11 01:55:23;;;;;;;46.78;19.00;;;;;;;-1.76;78.31;103490.53;5002919;28;20100;-46
2022/01/11 01:57:50;;;;;;;44.50;19.15;;;;;;;-1.74;78.10;103478.13;5005469;28;20475;-46
2022/01/11 02:00:16;;;;;;;56.15;21.30;;;;;;;-1.74;78.54;103472.84;5005071;28;20149;-46
2022/01/11 02:02:42;;;;;;;45.50;19.25;;;;;;;-1.75;78.78;103472.97;5005691;28;20483;-46
2022/01/11 02:05:08;;;;;;;49.47;20.30;;;;;;;-1.73;78.35;103479.78;5005701;28;20037;-46
2022/01/11 02:07:34;;;;;;;44.97;20.52;;;;;;;-1.74;78.77;103478.13;5004974;28;20083;-46
2022/01/11 02:10:03;;;;;;;50.22;19.17;;;;;;;-1.67;78.41;103478.53;5001504;28;20034;-48
2022/01/11 02:12:29;;;;;;;48.20;19.45;;;;;;;-1.63;78.65;103480.84;5005325;28;20030;-47
2022/01/11 02:14:54;;;;;;;48.58;19.33;;;;;;;-1.61;78.13;103488.69;5004949;28;20036;-46
2022/01/11 02:17:20;;;;;;;44.53;19.35;;;;;;;-1.64;78.65;103487.06;5008104;28;20093;-45
2022/01/11 02:19:46;;;;;;;48.28;19.75;;;;;;;-1.65;78.53;103488.00;5006437;28;20120;-45
2022/01/11 02:22:11;;;;;;;48.25;19.60;;;;;;;-1.63;78.51;103485.28;5010675;28;20040;-46
2022/01/11 02:24:37;;;;;;;49.92;21.25;;;;;;;-1.67;78.12;103495.16;5007487;28;20430;-45
2022/01/11 02:27:03;;;;;;;43.38;19.40;;;;;;;-1.67;78.04;103494.31;5008701;28;20030;-46
2022/01/11 02:29:29;;;;;;;46.25;18.38;;;;;;;-1.68;78.38;103501.34;5007128;28;20025;-46
2022/01/11 02:31:55;;;;;;;50.10;20.33;;;;;;;-1.65;78.08;103488.00;5008603;28;20387;-46
2022/01/11 02:34:20;;;;;;;51.30;19.80;;;;;;;-1.58;78.49;103493.72;5007682;28;20029;-46
2022/01/11 02:36:46;;;;;;;47.70;19.00;;;;;;;-1.54;78.03;103485.53;5008499;28;20080;-46
2022/01/11 02:39:11;;;;;;;47.80;18.83;;;;;;;-1.58;77.96;103489.31;5006069;28;20391;-48
2022/01/11 02:41:48;;;;;;;50.22;21.02;;;;;;;-1.56;77.61;103491.84;5007434;28;20029;-46
2022/01/11 02:44:14;;;;;;;49.78;19.08;;;;;;;-1.57;77.96;103491.00;5008257;28;20491;-46
2022/01/11 02:46:39;;;;;;;48.22;19.45;;;;;;;-1.53;77.87;103492.47;5010113;28;20033;-48
2022/01/11 02:49:05;;;;;;;43.22;18.15;;;;;;;-1.56;77.85;103497.09;5006549;28;20396;-47
2022/01/11 02:51:30;;;;;;;47.95;18.67;;;;;;;-1.55;77.39;103491.72;5006765;28;20040;-45
2022/01/11 02:53:57;;;;;;;42.63;18.77;;;;;;;-1.58;77.45;103496.34;5006800;28;20033;-46
2022/01/11 02:56:23;;;;;;;47.58;18.38;;;;;;;-1.61;77.47;103504.44;5007888;28;20057;-46
2022/01/11 02:58:49;;;;;;;46.50;18.60;;;;;;;-1.59;77.55;103508.66;5008193;28;20057;-47
2022/01/11 03:01:15;;;;;;;46.33;18.17;;;;;;;-1.57;77.58;103508.56;5006599;28;20026;-47
2022/01/11 03:03:40;;;;;;;46.83;18.38;;;;;;;-1.61;77.37;103513.19;5008507;28;20534;-46
2022/01/11 03:06:06;;;;;;;40.97;16.98;;;;;;;-1.63;77.51;103511.56;5003803;28;20041;-46
2022/01/11 03:08:35;;;;;;;40.30;16.90;;;;;;;-1.69;77.54;103506.72;5006403;28;20598;-47
2022/01/11 03:11:01;;;;;;;41.17;18.48;;;;;;;-1.70;77.93;103500.63;5005721;28;20048;-46
2022/01/11 03:13:27;;;;;;;44.17;17.42;;;;;;;-1.67;77.64;103508.31;5007486;28;20034;-46
2022/01/11 03:15:53;;;;;;;36.45;17.10;;;;;;;-1.61;77.36;103510.56;5008767;28;20054;-47
2022/01/11 03:18:21;;;;;;;38.25;15.63;;;;;;;-1.68;77.65;103517.13;5006935;28;20197;-48
2022/01/11 03:20:49;;;;;;;42.67;18.35;;;;;;;-1.64;77.69;103515.97;5006896;28;20095;-47
2022/01/11 03:23:16;;;;;;;43.00;17.70;;;;;;;-1.62;76.93;103513.25;5006376;28;20022;-47
2022/01/11 03:25:42;;;;;;;43.90;18.00;;;;;;;-1.57;77.16;103519.91;5005941;28;20025;-46
2022/01/11 03:28:08;;;;;;;44.80;18.92;;;;;;;-1.60;77.26;103522.75;5007284;28;20483;-46
2022/01/11 03:30:33;;;;;;;40.65;16.42;;;;;;;-1.59;76.86;103521.81;5006887;28;20105;-46
2022/01/11 03:32:59;;;;;;;42.85;18.40;;;;;;;-1.57;76.48;103525.16;5020758;28;20030;-46
2022/01/11 03:35:26;;;;;;;39.75;17.20;;;;;;;-1.59;77.06;103524.44;5007101;28;20083;-46
2022/01/11 03:37:52;;;;;;;42.63;17.73;;;;;;;-1.57;76.52;103525.16;5005476;28;20041;-46
2022/01/11 03:40:20;;;;;;;39.75;16.58;;;;;;;-1.52;77.06;103530.13;5007575;28;20477;-46
2022/01/11 03:42:47;;;;;;;42.90;17.85;;;;;;;-1.50;76.80;103527.38;5007634;28;20112;-46
2022/01/11 03:45:15;;;;;;;38.97;17.05;;;;;;;-1.49;76.78;103527.28;5019252;28;20499;-46
2022/01/11 03:47:41;;;;;;;44.33;18.27;;;;;;;-1.44;76.63;103521.72;5004573;28;20423;-46
2022/01/11 03:50:10;;;;;;;44.80;18.58;;;;;;;-1.43;76.54;103520.78;5007312;28;20030;-45
2022/01/11 03:52:37;;;;;;;38.97;17.05;;;;;;;-1.41;76.40;103525.00;5006405;28;20061;-47
2022/01/11 03:55:10;;;;;;;42.55;18.83;;;;;;;-1.42;76.40;103514.59;5007870;28;20036;-46
2022/01/11 03:57:36;;;;;;;46.58;19.33;;;;;;;-1.50;76.25;103517.72;5006608;28;20192;-45
2022/01/11 04:00:12;;;;;;;46.75;17.42;;;;;;;-1.49;76.49;103521.19;5002888;28;20030;-45
2022/01/11 04:02:37;;;;;;;41.72;17.85;;;;;;;-1.46;76.59;103531.50;5005367;28;20025;-45
2022/01/11 04:05:03;;;;;;;40.88;17.00;;;;;;;-1.47;76.83;103522.75;5006416;28;20052;-46
2022/01/11 04:07:30;;;;;;;41.33;18.38;;;;;;;-1.50;76.54;103532.66;5004053;28;20196;-46
2022/01/11 04:09:56;;;;;;;42.00;17.08;;;;;;;-1.50;76.78;103527.38;5005720;28;20030;-45
2022/01/11 04:12:22;;;;;;;38.58;17.42;;;;;;;-1.48;76.77;103522.88;5006295;28;20026;-45
2022/01/11 04:14:48;;;;;;;44.10;17.77;;;;;;;-1.47;76.46;103525.38;5005183;28;20557;-46
2022/01/11 04:17:14;;;;;;;39.40;19.50;;;;;;;-1.47;76.81;103525.38;5007285;28;20029;-45
2022/01/11 04:19:40;;;;;;;39.38;18.25;;;;;;;-1.49;76.24;103522.03;5005154;28;20025;-45
2022/01/11 04:22:06;;;;;;;44.85;18.02;;;;;;;-1.47;76.91;103527.19;5005799;28;20026;-45
2022/01/11 04:24:32;;;;;;;39.15;17.45;;;;;;;-1.48;76.66;103520.25;5005017;28;20065;-47
2022/01/11 04:26:58;;;;;;;46.72;17.75;;;;;;;-1.50;76.52;103517.72;5006425;28;20475;-46
2022/01/11 04:29:23;;;;;;;37.97;17.92;;;;;;;-1.55;76.53;103522.44;5005085;28;20108;-47
2022/01/11 04:31:49;;;;;;;46.13;17.95;;;;;;;-1.57;76.60;103516.44;5008808;28;20111;-45
2022/01/11 04:34:15;;;;;;;47.45;18.38;;;;;;;-1.64;76.85;103526.50;5004324;28;20044;-46
2022/01/11 04:36:40;;;;;;;41.72;17.52;;;;;;;-1.68;76.84;103521.53;5004888;28;20446;-45
2022/01/11 04:39:08;;;;;;;41.90;18.33;;;;;;;-1.76;77.23;103522.06;5004481;28;20079;-46
2022/01/11 04:41:34;;;;;;;42.85;17.52;;;;;;;-1.84;76.94;103522.53;5004594;28;20025;-47
2022/01/11 04:44:00;;;;;;;39.85;17.98;;;;;;;-1.79;77.08;103527.53;5006672;28;20223;-46
2022/01/11 04:46:26;;;;;;;37.22;17.70;;;;;;;-1.76;76.83;103532.56;5005587;28;20022;-46
2022/01/11 04:48:53;;;;;;;40.15;17.20;;;;;;;-1.72;76.99;103534.06;5007324;28;20018;-46
2022/01/11 04:51:20;;;;;;;39.40;17.73;;;;;;;-1.71;77.23;103527.84;5001909;28;20045;-46
2022/01/11 04:53:49;;;;;;;44.05;18.25;;;;;;;-1.69;76.57;103525.97;5006037;28;20064;-45
2022/01/11 04:56:15;;;;;;;42.00;17.63;;;;;;;-1.70;76.68;103534.78;5006069;28;20247;-46
2022/01/11 04:58:41;;;;;;;37.05;16.17;;;;;;;-1.69;77.06;103539.09;5004683;28;20030;-45
2022/01/11 05:01:07;;;;;;;41.95;18.30;;;;;;;-1.74;77.11;103535.94;5004876;28;20080;-46
2022/01/11 05:03:33;;;;;;;40.28;17.50;;;;;;;-1.77;77.31;103541.41;5004238;28;20029;-45
2022/01/11 05:05:59;;;;;;;40.00;17.40;;;;;;;-1.79;76.61;103543.28;5003673;28;20388;-45
2022/01/11 05:08:24;;;;;;;43.35;17.38;;;;;;;-1.82;76.91;103541.66;5005050;28;20041;-46
2022/01/11 05:10:51;;;;;;;37.20;16.88;;;;;;;-1.79;77.15;103550.34;5004557;28;20426;-46
2022/01/11 05:13:18;;;;;;;36.53;16.20;;;;;;;-1.77;77.30;103551.91;5005949;28;20549;-45
2022/01/11 05:15:44;;;;;;;39.83;17.08;;;;;;;-1.76;77.08;103547.50;5021386;28;20033;-48
2022/01/11 05:18:10;;;;;;;39.58;16.92;;;;;;;-1.75;77.03;103551.81;5009532;28;20041;-45
2022/01/11 05:20:37;;;;;;;38.03;17.63;;;;;;;-1.74;76.87;103556.97;5004300;28;20484;-46
2022/01/11 05:23:04;;;;;;;38.53;17.02;;;;;;;-1.76;76.82;103555.38;5005775;28;20508;-45
2022/01/11 05:25:31;;;;;;;36.17;16.13;;;;;;;-1.78;76.58;103555.50;5004712;28;20494;-46
2022/01/11 05:27:56;;;;;;;45.45;17.35;;;;;;;-1.82;76.23;103564.47;5020900;28;20643;-45
2022/01/11 05:30:23;;;;;;;35.60;15.60;;;;;;;-1.85;76.62;103569.94;5005996;28;20030;-47
2022/01/11 05:32:48;;;;;;;34.70;14.85;;;;;;;-1.94;76.53;103571.38;5004981;28;20026;-46
2022/01/11 05:35:16;;;;;;;36.45;15.85;;;;;;;-1.98;76.74;103569.03;5002010;28;20041;-46
2022/01/11 05:37:42;;;;;;;36.10;15.85;;;;;;;-1.98;76.82;103576.91;5002162;28;20494;-46
2022/01/11 05:40:11;;;;;;;39.90;16.55;;;;;;;-1.98;76.55;103584.78;5005826;28;20503;-46
2022/01/11 05:42:37;;;;;;;39.95;16.30;;;;;;;-2.01;76.36;103580.56;5003523;28;20112;-46
2022/01/11 05:45:05;;;;;;;37.75;15.20;;;;;;;-2.01;76.47;103585.00;5005375;28;20143;-45
2022/01/11 05:47:31;;;;;;;36.90;16.02;;;;;;;-2.10;75.98;103585.56;5003774;28;20461;-45
2022/01/11 05:49:56;;;;;;;38.58;15.57;;;;;;;-2.13;76.15;103581.38;5005436;28;20049;-46
2022/01/11 05:52:22;;;;;;;36.83;15.30;;;;;;;-2.13;76.13;103581.38;5004251;28;20402;-46
2022/01/11 05:54:47;;;;;;;36.08;15.60;;;;;;;-2.11;76.24;103587.38;5004791;28;20084;-46
2022/01/11 05:57:13;;;;;;;37.03;16.65;;;;;;;-2.12;75.83;103585.69;5008013;28;20493;-45
2022/01/11 05:59:39;;;;;;;38.95;16.67;;;;;;;-2.16;75.97;103585.00;5010358;28;20220;-45
2022/01/11 06:02:04;;;;;;;36.13;15.13;;;;;;;-2.15;75.70;103588.50;5008224;28;20128;-45
2022/01/11 06:04:30;;;;;;;36.67;17.05;;;;;;;-2.19;75.74;103586.97;5009075;28;20053;-45
2022/01/11 06:06:55;;;;;;;41.85;16.77;;;;;;;-2.21;75.44;103589.69;5008685;28;20036;-45
2022/01/11 06:09:26;;;;;;;39.00;16.48;;;;;;;-2.24;76.05;103587.28;5021643;28;20487;-45
2022/01/11 06:11:52;;;;;;;36.08;15.38;;;;;;;-2.26;75.60;103590.94;5006275;28;20507;-45
2022/01/11 06:14:18;;;;;;;37.38;17.95;;;;;;;-2.28;75.77;103592.81;5007287;28;20117;-45
2022/01/11 06:16:43;;;;;;;39.80;17.02;;;;;;;-2.31;76.14;103591.22;5006912;28;20032;-45
2022/01/11 06:19:09;;;;;;;39.55;16.70;;;;;;;-2.33;76.12;103600.13;5009202;28;20026;-45
2022/01/11 06:21:34;;;;;;;40.92;16.75;;;;;;;-2.37;75.55;103598.63;5007899;28;20451;-45
2022/01/11 06:24:00;;;;;;;41.33;16.88;;;;;;;-2.40;75.43;103599.66;5009527;28;20033;-45
2022/01/11 06:26:25;;;;;;;41.80;16.95;;;;;;;-2.40;75.77;103609.31;5007546;28;20021;-45
2022/01/11 06:28:51;;;;;;;37.35;15.88;;;;;;;-2.43;75.97;103610.34;5008509;28;20033;-45
2022/01/11 06:31:16;;;;;;;37.22;15.45;;;;;;;-2.45;75.93;103615.69;5009121;28;20030;-45
2022/01/11 06:33:42;;;;;;;36.08;15.02;;;;;;;-2.48;75.98;103615.03;5008943;28;20044;-46
2022/01/11 06:36:10;;;;;;;37.38;15.35;;;;;;;-2.52;75.77;103619.59;5010664;28;20025;-45
2022/01/11 06:38:38;;;;;;;37.45;15.98;;;;;;;-2.90;75.54;103626.28;5008921;28;20087;-46
2022/01/11 06:41:03;;;;;;;35.67;17.42;;;;;;;-3.35;76.86;103631.47;5009523;28;20022;-46
2022/01/11 06:43:28;;;;;;;42.50;16.58;;;;;;;-3.51;77.08;103625.41;5009616;28;20103;-45
2022/01/11 06:45:54;;;;;;;42.83;17.50;;;;;;;-3.42;78.01;103635.34;5009769;28;20784;-46
2022/01/11 06:48:20;;;;;;;42.05;17.52;;;;;;;-3.26;77.78;103627.47;5008607;28;20651;-45
2022/01/11 06:50:45;;;;;;;43.70;16.80;;;;;;;-3.15;77.68;103621.63;5010106;28;20404;-45
2022/01/11 06:53:11;;;;;;;40.65;18.17;;;;;;;-3.06;77.68;103621.06;5009290;28;20026;-46
2022/01/11 06:55:36;;;;;;;39.20;16.27;;;;;;;-3.03;77.26;103631.41;5008963;28;20467;-45
2022/01/11 06:58:02;;;;;;;37.47;16.55;;;;;;;-3.00;76.88;103631.22;5009201;28;20057;-45
2022/01/11 07:00:27;;;;;;;34.72;17.50;;;;;;;-2.95;76.71;103631.81;5008325;28;20030;-45
2022/01/11 07:02:53;;;;;;;39.00;16.40;;;;;;;-2.93;76.75;103640.44;5006271;28;20025;-46
2022/01/11 07:05:18;;;;;;;41.58;16.90;;;;;;;-2.90;76.59;103648.13;5008490;28;20021;-45
2022/01/11 07:07:44;;;;;;;36.65;16.45;;;;;;;-2.87;76.37;103653.22;5009783;28;20029;-46
2022/01/11 07:10:10;;;;;;;34.25;15.90;;;;;;;-2.92;76.82;103657.84;5008687;28;20578;-46
2022/01/11 07:12:36;;;;;;;40.05;16.35;;;;;;;-2.99;75.80;103658.31;5008714;28;20040;-45
2022/01/11 07:15:03;;;;;;;37.75;16.50;;;;;;;-3.08;75.82;103664.91;5008700;28;20034;-46
2022/01/11 07:17:28;;;;;;;44.28;17.27;;;;;;;-3.33;75.97;103656.75;5008303;28;20026;-45
2022/01/11 07:19:54;;;;;;;44.58;18.30;;;;;;;-3.32;76.29;103668.94;5022744;28;20375;-45
2022/01/11 07:22:19;;;;;;;41.88;18.15;;;;;;;-3.39;76.82;103677.16;5009019;28;20040;-45
2022/01/11 07:24:45;;;;;;;40.88;18.83;;;;;;;-3.39;76.84;103677.16;5007564;28;20195;-45
2022/01/11 07:27:11;;;;;;;44.78;19.05;;;;;;;-3.33;77.27;103677.72;5009653;28;20029;-46
2022/01/11 07:29:36;;;;;;;43.90;17.80;;;;;;;-3.26;77.00;103677.28;5008164;28;20553;-45
2022/01/11 07:32:02;;;;;;;41.28;17.15;;;;;;;-3.18;77.28;103684.75;5009266;28;21581;-45
2022/01/11 07:34:27;;;;;;;43.33;17.60;;;;;;;-3.16;76.86;103683.72;5009438;28;20083;-45
2022/01/11 07:36:53;;;;;;;46.60;19.02;;;;;;;-3.17;76.47;103686.44;5008295;28;20033;-45
2022/01/11 07:39:19;;;;;;;49.42;19.30;;;;;;;-3.26;76.80;103689.56;5008597;28;20113;-45
2022/01/11 07:41:45;;;;;;;43.63;17.90;;;;;;;-3.31;76.36;103694.22;5009909;28;20468;-45
2022/01/11 07:44:11;;;;;;;41.88;18.48;;;;;;;-3.40;76.80;103690.34;5010433;28;20065;-46
2022/01/11 07:46:42;;;;;;;49.10;19.65;;;;;;;-3.38;77.05;103689.31;5009417;28;20482;-45
2022/01/11 07:49:08;;;;;;;42.17;19.08;;;;;;;-3.29;77.32;103692.34;5009779;28;20083;-45
2022/01/11 07:51:34;;;;;;;47.85;19.85;;;;;;;-3.25;76.32;103693.88;5008893;28;20030;-45
2022/01/11 07:53:59;;;;;;;52.38;19.00;;;;;;;-3.24;76.19;103688.53;5008256;28;20475;-46
2022/01/11 07:56:25;;;;;;;42.45;18.17;;;;;;;-3.21;76.49;103695.41;5008019;28;20507;-45
2022/01/11 07:58:50;;;;;;;43.10;19.63;;;;;;;-3.18;76.14;103700.47;5008823;28;20021;-45
2022/01/11 08:01:16;;;;;;;42.05;18.70;;;;;;;-3.14;75.85;103712.47;5007968;28;20041;-45
2022/01/11 08:03:42;;;;;;;46.67;18.35;;;;;;;-3.07;76.15;103711.19;5023667;28;20462;-45
2022/01/11 08:06:07;;;;;;;48.08;20.02;;;;;;;-3.08;76.41;103712.97;5007813;28;20112;-45
2022/01/11 08:08:33;;;;;;;46.60;18.05;;;;;;;-3.12;76.05;103708.00;5006869;28;20026;-47
2022/01/11 08:11:00;;;;;;;40.90;17.75;;;;;;;-3.07;76.41;103709.41;5008049;28;20372;-45
2022/01/11 08:13:25;;;;;;;46.38;18.23;;;;;;;-2.94;75.82;103709.56;5006317;28;20510;-45
2022/01/11 08:15:51;;;;;;;44.55;19.73;;;;;;;-2.81;75.67;103705.31;5006372;28;20034;-45
2022/01/11 08:18:16;;;;;;;41.90;18.42;;;;;;;-2.77;75.73;103711.22;5000619;28;20033;-45
2022/01/11 08:20:43;;;;;;;45.78;19.65;;;;;;;-2.74;75.48;103717.16;5008100;28;20029;-45
2022/01/11 08:23:10;;;;;;;49.63;21.00;;;;;;;-2.70;75.64;103714.34;5006339;28;20400;-45
2022/01/11 08:25:35;;;;;;;47.30;19.55;;;;;;;-2.64;75.74;103722.72;5005929;28;20030;-46
2022/01/11 08:28:01;;;;;;;45.35;20.13;;;;;;;-2.56;75.33;103727.50;5008814;28;20622;-45
2022/01/11 08:30:27;;;;;;;47.47;19.63;;;;;;;-2.51;74.98;103722.88;5008823;28;20044;-45
2022/01/11 08:32:52;;;;;;;49.47;19.10;;;;;;;-2.48;74.87;103723.53;5007831;28;20026;-46
2022/01/11 08:35:18;;;;;;;45.17;21.92;;;;;;;-2.42;74.82;103722.31;5006986;28;20025;-45
2022/01/11 08:37:43;;;;;;;49.65;20.83;;;;;;;-2.45;75.70;103717.25;5005564;28;20472;-45
2022/01/11 08:40:10;;;;;;;52.85;22.35;;;;;;;-2.45;75.28;103718.09;5005716;28;20503;-45
2022/01/11 08:42:36;;;;;;;51.13;21.80;;;;;;;-2.37;75.35;103728.13;5007991;28;20427;-45
2022/01/11 08:45:03;;;;;;;49.85;20.77;;;;;;;-2.36;75.49;103727.19;5010269;28;20325;-46
2022/01/11 08:47:30;;;;;;;49.83;21.33;;;;;;;-2.33;75.10;103727.03;5007525;28;20479;-45
2022/01/11 08:49:59;;;;;;;53.80;22.27;;;;;;;-2.35;75.61;103726.25;5009104;28;20052;-45
2022/01/11 08:52:28;;;;;;;51.67;20.88;;;;;;;-2.30;75.53;103736.50;5008233;28;20033;-45
2022/01/11 08:54:54;;;;;;;51.47;20.33;;;;;;;-2.22;75.16;103729.00;5006110;28;20204;-45
2022/01/11 08:57:20;;;;;;;50.78;19.95;;;;;;;-2.18;75.21;103725.25;5007917;28;20105;-45
2022/01/11 08:59:47;;;;;;;48.33;20.05;;;;;;;-2.18;75.46;103728.72;5007527;28;20061;-46
2022/01/11 09:02:13;;;;;;;53.40;21.33;;;;;;;-2.18;75.61;103723.47;5008121;28;20392;-46
2022/01/11 09:04:39;;;;;;;53.20;21.88;;;;;;;-2.21;75.69;103742.03;5007978;28;20239;-46
2022/01/11 09:07:05;;;;;;;60.05;24.00;;;;;;;-2.12;75.98;103735.41;5007930;28;20068;-45
2022/01/11 09:09:32;;;;;;;55.08;23.45;;;;;;;-2.03;75.81;103736.63;5006046;28;20472;-46
2022/01/11 09:11:58;;;;;;;56.63;22.35;;;;;;;-2.07;75.77;103728.09;5007199;28;20042;-45
2022/01/11 09:14:24;;;;;;;53.63;20.23;;;;;;;-1.99;76.10;103730.25;5006849;28;20076;-45
2022/01/11 09:16:51;;;;;;;57.58;23.05;;;;;;;-1.84;76.18;103735.41;5005823;28;20479;-46
2022/01/11 09:19:18;;;;;;;50.55;20.60;;;;;;;-1.64;75.77;103734.19;5006225;28;20459;-46
2022/01/11 09:21:44;;;;;;;49.08;21.20;;;;;;;-1.50;75.81;103735.97;5006143;28;20021;-45
2022/01/11 09:24:11;;;;;;;52.45;20.65;;;;;;;-1.34;75.39;103741.13;5006785;28;20044;-45
2022/01/11 09:26:37;;;;;;;54.15;21.80;;;;;;;-1.27;74.85;103729.25;5006504;28;20076;-45
2022/01/11 09:29:03;;;;;;;61.13;22.52;;;;;;;-1.19;75.09;103729.63;5006665;28;20195;-46
2022/01/11 09:31:29;;;;;;;50.00;20.02;;;;;;;-1.10;75.22;103722.91;5006876;28;20503;-47
2022/01/11 09:33:54;;;;;;;50.40;21.48;;;;;;;-1.01;75.02;103723.19;5004471;28;20034;-46
2022/01/11 09:36:20;;;;;;;52.20;20.23;;;;;;;-0.88;74.42;103723.22;5007108;28;20300;-46
2022/01/11 09:38:45;;;;;;;47.22;19.48;;;;;;;-0.77;74.67;103718.09;5004421;28;20069;-46
2022/01/11 09:41:11;;;;;;;59.97;22.70;;;;;;;-0.63;74.45;103731.19;5006807;28;20036;-45
2022/01/11 09:43:37;;;;;;;49.70;19.98;;;;;;;-0.55;74.35;103722.78;5006300;28;20030;-46
2022/01/11 09:46:02;;;;;;;54.08;21.48;;;;;;;-0.46;73.95;103718.69;5006643;28;20045;-46
2022/01/11 09:48:32;;;;;;;51.00;20.95;;;;;;;-0.35;73.97;103719.66;5006930;28;20411;-45
2022/01/11 09:50:58;;;;;;;54.35;21.98;;;;;;;-0.24;73.63;103715.44;5006576;28;20534;-45
2022/01/11 09:53:25;;;;;;;53.17;21.85;;;;;;;-0.16;73.11;103702.59;5005839;28;20041;-46
2022/01/11 09:55:51;;;;;;;48.13;19.25;;;;;;;-0.12;73.02;103698.81;5005831;28;20033;-46
2022/01/11 09:58:17;;;;;;;46.20;20.60;;;;;;;-0.06;73.45;103707.13;5007054;28;20033;-46
2022/01/11 10:00:43;;;;;;;49.60;20.42;;;;;;;-0.04;73.36;103709.66;5005747;28;20025;-46
2022/01/11 10:03:09;;;;;;;54.88;22.45;;;;;;;-0.16;72.98;103699.97;5005686;28;20034;-46
2022/01/11 10:05:38;;;;;;;54.03;21.40;;;;;;;-0.18;73.50;103702.72;5005762;28;20022;-46
2022/01/11 10:08:27;;;;;;;52.35;21.08;;;;;;;-0.24;73.32;103699.63;5006055;28;20056;-45
2022/01/11 10:10:54;;;;;;;50.00;20.77;;;;;;;-0.13;73.54;103705.03;5005471;28;20117;-46
2022/01/11 10:13:31;;;;;;;53.92;21.40;;;;;;;-0.04;73.31;103696.47;5006647;28;20025;-46
2022/01/11 10:15:57;;;;;;;55.33;23.73;;;;;;;0.03;73.46;103697.75;5004308;28;20037;-46
2022/01/11 10:18:34;;;;;;;49.47;20.17;;;;;;;0.03;73.13;103707.44;5006483;28;20172;-45
2022/01/11 10:21:00;;;;;;;52.50;21.63;;;;;;;0.06;73.30;103701.97;5006222;28;20045;-45
2022/01/11 10:23:32;;;;;;;48.72;20.00;;;;;;;0.17;72.87;103702.03;5005988;28;20498;-46
2022/01/11 10:25:58;;;;;;;53.92;21.23;;;;;;;0.22;72.83;103698.16;5006268;28;20030;-45
2022/01/11 10:28:35;;;;;;;54.08;21.63;;;;;;;0.18;72.62;103706.34;5006613;28;20583;-46
2022/01/11 10:31:01;;;;;;;53.08;21.60;;;;;;;0.26;73.00;103709.31;5005496;28;20561;-45
2022/01/11 10:33:26;;;;;;;48.72;20.42;;;;;;;0.21;73.03;103709.66;5003926;28;20049;-46
2022/01/11 10:35:52;;;;;;;49.92;20.90;;;;;;;0.05;72.87;103714.28;5006264;28;20049;-47
2022/01/11 10:38:27;;;;;;;52.83;21.58;;;;;;;0.13;73.21;103719.88;5005768;28;20122;-46
2022/01/11 10:40:52;;;;;;;48.95;22.02;;;;;;;0.34;73.08;103720.16;5007717;28;20475;-47
2022/01/11 10:43:21;;;;;;;51.35;22.08;;;;;;;0.41;72.52;103716.16;5009962;28;20036;-46
2022/01/11 10:45:49;;;;;;;46.90;21.08;;;;;;;0.53;72.75;103723.16;5006703;28;20394;-47
2022/01/11 10:48:21;;;;;;;48.80;19.95;;;;;;;0.65;72.38;103723.25;5010101;28;20041;-46
2022/01/11 10:50:51;;;;;;;50.33;22.20;;;;;;;0.64;72.30;103726.84;5008239;28;20063;-46
2022/01/11 10:53:19;;;;;;;45.83;19.85;;;;;;;0.62;71.91;103721.69;5010594;28;20037;-47
2022/01/11 10:55:50;;;;;;;51.80;21.48;;;;;;;0.72;71.81;103724.50;5008586;28;20024;-47
2022/01/11 10:58:17;;;;;;;50.70;21.73;;;;;;;0.80;71.79;103725.63;5009886;28;20089;-46
2022/01/11 11:00:48;;;;;;;48.03;21.23;;;;;;;0.83;71.51;103725.41;5009052;28;20371;-46
2022/01/11 11:03:19;;;;;;;54.28;20.45;;;;;;;0.79;71.43;103718.69;5009499;28;20025;-49
2022/01/11 11:05:50;;;;;;;50.65;21.38;;;;;;;0.88;71.43;103720.63;5008009;28;20030;-46